sensor_id;sensor_type;location;lat;lon;timestamp;pressure;altitude;pressure_sealevel;temperature;humidity
41712;BME280;27399;51.516;13.670;2023-04-25T00:00:11;99638.75;;;11.35;70.05
41712;BME280;27399;51.516;13.670;2023-04-25T00:02:37;99638.31;;;11.17;69.76
41712;BME280;27399;51.516;13.670;2023-04-25T00:05:03;99620.69;;;11.10;70.31
41712;BME280;27399;51.516;13.670;2023-04-25T00:07:30;99632.91;;;11.19;70.28
41712;BME280;27399;51.516;13.670;2023-04-25T00:09:56;99631.19;;;11.16;70.55
41712;BME280;27399;51.516;13.670;2023-04-25T00:12:22;99625.66;;;11.25;70.09
41712;BME280;27399;51.516;13.670;2023-04-25T00:14:48;99625.94;;;11.13;70.88
41712;BME280;27399;51.516;13.670;2023-04-25T00:17:15;99626.72;;;11.18;70.24
41712;BME280;27399;51.516;13.670;2023-04-25T00:19:42;99625.06;;;11.12;70.13
41712;BME280;27399;51.516;13.670;2023-04-25T00:22:10;99631.16;;;11.19;70.31
41712;BME280;27399;51.516;13.670;2023-04-25T00:24:36;99636.31;;;11.27;69.44
41712;BME280;27399;51.516;13.670;2023-04-25T00:27:01;99633.25;;;11.05;69.68
41712;BME280;27399;51.516;13.670;2023-04-25T00:29:27;99625.50;;;10.92;70.29
41712;BME280;27399;51.516;13.670;2023-04-25T00:31:52;99629.28;;;10.83;70.55
41712;BME280;27399;51.516;13.670;2023-04-25T00:34:18;99626.41;;;10.91;69.93
41712;BME280;27399;51.516;13.670;2023-04-25T00:36:44;99622.28;;;11.17;69.92
41712;BME280;27399;51.516;13.670;2023-04-25T00:39:10;99613.19;;;11.26;69.97
41712;BME280;27399;51.516;13.670;2023-04-25T00:41:36;99600.16;;;11.12;69.86
41712;BME280;27399;51.516;13.670;2023-04-25T00:44:03;99618.47;;;11.27;69.41
41712;BME280;27399;51.516;13.670;2023-04-25T00:46:32;99616.94;;;11.17;69.26
41712;BME280;27399;51.516;13.670;2023-04-25T00:48:57;99621.38;;;11.18;70.25
41712;BME280;27399;51.516;13.670;2023-04-25T00:51:23;99614.28;;;11.17;69.60
41712;BME280;27399;51.516;13.670;2023-04-25T00:53:51;99610.59;;;11.23;69.22
41712;BME280;27399;51.516;13.670;2023-04-25T00:56:16;99617.22;;;11.05;69.73
41712;BME280;27399;51.516;13.670;2023-04-25T00:58:42;99599.44;;;11.05;69.07
41712;BME280;27399;51.516;13.670;2023-04-25T01:01:09;99614.84;;;11.30;68.87
41712;BME280;27399;51.516;13.670;2023-04-25T01:03:37;99609.91;;;11.13;69.46
41712;BME280;27399;51.516;13.670;2023-04-25T01:06:08;99615.03;;;11.22;68.85
41712;BME280;27399;51.516;13.670;2023-04-25T01:08:34;99608.53;;;11.34;68.22
41712;BME280;27399;51.516;13.670;2023-04-25T01:11:00;99609.91;;;11.13;69.04
41712;BME280;27399;51.516;13.670;2023-04-25T01:13:26;99609.78;;;11.19;69.54
41712;BME280;27399;51.516;13.670;2023-04-25T01:15:52;99610.53;;;11.24;68.42
41712;BME280;27399;51.516;13.670;2023-04-25T01:18:19;99598.50;;;11.08;69.05
41712;BME280;27399;51.516;13.670;2023-04-25T01:20:46;99610.25;;;11.37;68.55
41712;BME280;27399;51.516;13.670;2023-04-25T01:23:15;99613.59;;;11.09;69.36
41712;BME280;27399;51.516;13.670;2023-04-25T01:25:41;99614.22;;;11.20;68.85
41712;BME280;27399;51.516;13.670;2023-04-25T01:28:07;99616.53;;;10.96;69.75
41712;BME280;27399;51.516;13.670;2023-04-25T01:30:33;99612.97;;;10.96;69.27
41712;BME280;27399;51.516;13.670;2023-04-25T01:33:00;99610.53;;;10.87;69.98
41712;BME280;27399;51.516;13.670;2023-04-25T01:35:26;99600.66;;;10.90;69.55
41712;BME280;27399;51.516;13.670;2023-04-25T01:37:52;99602.41;;;10.93;69.85
41712;BME280;27399;51.516;13.670;2023-04-25T01:40:19;99603.38;;;10.89;70.00
41712;BME280;27399;51.516;13.670;2023-04-25T01:42:46;99598.16;;;10.84;70.26
41712;BME280;27399;51.516;13.670;2023-04-25T01:45:11;99598.59;;;11.03;69.93
41712;BME280;27399;51.516;13.670;2023-04-25T01:47:38;99607.63;;;10.97;69.93
41712;BME280;27399;51.516;13.670;2023-04-25T01:50:07;99605.28;;;10.82;70.63
41712;BME280;27399;51.516;13.670;2023-04-25T01:52:33;99605.88;;;10.96;70.47
41712;BME280;27399;51.516;13.670;2023-04-25T01:55:01;99600.59;;;10.93;70.04
41712;BME280;27399;51.516;13.670;2023-04-25T01:57:27;99601.59;;;10.89;70.59
41712;BME280;27399;51.516;13.670;2023-04-25T01:59:58;99601.09;;;11.11;70.47
41712;BME280;27399;51.516;13.670;2023-04-25T02:02:25;99605.69;;;11.04;69.54
41712;BME280;27399;51.516;13.670;2023-04-25T02:04:51;99607.66;;;10.96;69.82
41712;BME280;27399;51.516;13.670;2023-04-25T02:07:17;99606.50;;;11.08;70.08
41712;BME280;27399;51.516;13.670;2023-04-25T02:09:43;99602.88;;;11.10;69.65
41712;BME280;27399;51.516;13.670;2023-04-25T02:12:10;99606.38;;;11.12;69.87
41712;BME280;27399;51.516;13.670;2023-04-25T02:14:35;99605.44;;;11.15;69.69
41712;BME280;27399;51.516;13.670;2023-04-25T02:17:01;99606.34;;;11.14;69.51
41712;BME280;27399;51.516;13.670;2023-04-25T02:19:27;99611.28;;;10.93;69.58
41712;BME280;27399;51.516;13.670;2023-04-25T02:21:52;99617.34;;;11.00;70.08
41712;BME280;27399;51.516;13.670;2023-04-25T02:24:18;99610.19;;;10.61;71.07
41712;BME280;27399;51.516;13.670;2023-04-25T02:26:44;99608.47;;;10.99;70.22
41712;BME280;27399;51.516;13.670;2023-04-25T02:29:10;99597.91;;;10.95;70.84
41712;BME280;27399;51.516;13.670;2023-04-25T02:31:35;99603.03;;;11.03;70.82
41712;BME280;27399;51.516;13.670;2023-04-25T02:34:01;99607.84;;;10.87;70.81
41712;BME280;27399;51.516;13.670;2023-04-25T02:36:27;99603.13;;;10.99;70.55
41712;BME280;27399;51.516;13.670;2023-04-25T02:38:53;99610.56;;;10.85;71.27
41712;BME280;27399;51.516;13.670;2023-04-25T02:41:18;99605.72;;;11.03;71.12
41712;BME280;27399;51.516;13.670;2023-04-25T02:43:46;99605.88;;;10.96;71.18
41712;BME280;27399;51.516;13.670;2023-04-25T02:46:11;99602.19;;;11.00;71.22
41712;BME280;27399;51.516;13.670;2023-04-25T02:48:37;99597.88;;;10.96;71.66
41712;BME280;27399;51.516;13.670;2023-04-25T02:51:02;99593.38;;;10.98;71.88
41712;BME280;27399;51.516;13.670;2023-04-25T02:53:28;99597.53;;;11.10;71.38
41712;BME280;27399;51.516;13.670;2023-04-25T02:55:53;99595.94;;;11.01;71.77
41712;BME280;27399;51.516;13.670;2023-04-25T02:58:19;99593.72;;;10.83;72.72
41712;BME280;27399;51.516;13.670;2023-04-25T03:00:45;99586.56;;;10.85;72.66
41712;BME280;27399;51.516;13.670;2023-04-25T03:03:11;99591.19;;;10.77;72.87
41712;BME280;27399;51.516;13.670;2023-04-25T03:05:36;99589.78;;;10.60;73.67
41712;BME280;27399;51.516;13.670;2023-04-25T03:08:02;99584.69;;;10.89;73.30
41712;BME280;27399;51.516;13.670;2023-04-25T03:10:28;99587.97;;;10.62;73.78
41712;BME280;27399;51.516;13.670;2023-04-25T03:12:53;99589.75;;;10.62;74.10
41712;BME280;27399;51.516;13.670;2023-04-25T03:15:19;99585.06;;;10.73;74.23
41712;BME280;27399;51.516;13.670;2023-04-25T03:17:45;99583.56;;;10.60;74.24
41712;BME280;27399;51.516;13.670;2023-04-25T03:20:11;99586.56;;;10.85;73.69
41712;BME280;27399;51.516;13.670;2023-04-25T03:22:37;99582.25;;;10.37;74.25
41712;BME280;27399;51.516;13.670;2023-04-25T03:25:02;99581.13;;;10.49;74.70
41712;BME280;27399;51.516;13.670;2023-04-25T03:27:29;99575.53;;;10.63;74.46
41712;BME280;27399;51.516;13.670;2023-04-25T03:29:54;99576.72;;;10.48;74.26
41712;BME280;27399;51.516;13.670;2023-04-25T03:32:20;99574.94;;;10.48;74.40
41712;BME280;27399;51.516;13.670;2023-04-25T03:34:46;99589.78;;;10.60;74.63
41712;BME280;27399;51.516;13.670;2023-04-25T03:37:11;99583.63;;;10.58;74.20
41712;BME280;27399;51.516;13.670;2023-04-25T03:39:37;99587.16;;;10.59;74.32
41712;BME280;27399;51.516;13.670;2023-04-25T03:42:03;99583.63;;;10.58;74.70
41712;BME280;27399;51.516;13.670;2023-04-25T03:44:29;99585.88;;;10.77;73.62
41712;BME280;27399;51.516;13.670;2023-04-25T03:46:55;99591.47;;;10.64;73.81
41712;BME280;27399;51.516;13.670;2023-04-25T03:49:20;99590.66;;;10.61;73.48
41712;BME280;27399;51.516;13.670;2023-04-25T03:51:46;99600.75;;;10.46;74.43
41712;BME280;27399;51.516;13.670;2023-04-25T03:54:12;99596.53;;;10.34;74.42
41712;BME280;27399;51.516;13.670;2023-04-25T03:56:37;99601.13;;;10.26;74.77
41712;BME280;27399;51.516;13.670;2023-04-25T03:59:03;99596.47;;;10.36;74.17
41712;BME280;27399;51.516;13.670;2023-04-25T04:01:29;99595.72;;;10.29;74.08
41712;BME280;27399;51.516;13.670;2023-04-25T04:03:54;99598.44;;;10.28;74.39
41712;BME280;27399;51.516;13.670;2023-04-25T04:06:20;99601.38;;;10.14;74.41
41712;BME280;27399;51.516;13.670;2023-04-25T04:08:46;99582.94;;;10.03;74.92
41712;BME280;27399;51.516;13.670;2023-04-25T04:11:12;99602.88;;;10.27;74.62
41712;BME280;27399;51.516;13.670;2023-04-25T04:13:37;99599.63;;;10.13;74.91
41712;BME280;27399;51.516;13.670;2023-04-25T04:16:03;99606.75;;;10.11;75.35
41712;BME280;27399;51.516;13.670;2023-04-25T04:18:30;99604.56;;;9.86;75.39
41712;BME280;27399;51.516;13.670;2023-04-25T04:20:55;99608.19;;;10.27;74.09
41712;BME280;27399;51.516;13.670;2023-04-25T04:23:23;99599.09;;;9.93;75.31
41712;BME280;27399;51.516;13.670;2023-04-25T04:25:49;99599.72;;;10.06;74.53
41712;BME280;27399;51.516;13.670;2023-04-25T04:28:15;99602.78;;;9.86;74.56
41712;BME280;27399;51.516;13.670;2023-04-25T04:30:42;99611.47;;;9.98;74.97
41712;BME280;27399;51.516;13.670;2023-04-25T04:33:08;99611.13;;;10.15;74.49
41712;BME280;27399;51.516;13.670;2023-04-25T04:35:34;99614.09;;;9.99;74.27
41712;BME280;27399;51.516;13.670;2023-04-25T04:38:00;99612.13;;;10.07;74.31
41712;BME280;27399;51.516;13.670;2023-04-25T04:40:26;99618.38;;;10.06;74.04
41712;BME280;27399;51.516;13.670;2023-04-25T04:42:51;99616.13;;;9.85;74.46
41712;BME280;27399;51.516;13.670;2023-04-25T04:45:18;99614.13;;;9.96;74.19
41712;BME280;27399;51.516;13.670;2023-04-25T04:47:44;99621.22;;;9.47;74.94
41712;BME280;27399;51.516;13.670;2023-04-25T04:50:11;99616.38;;;9.72;74.60
41712;BME280;27399;51.516;13.670;2023-04-25T04:52:37;99614.81;;;9.59;74.98
41712;BME280;27399;51.516;13.670;2023-04-25T04:55:04;99620.72;;;9.76;74.54
41712;BME280;27399;51.516;13.670;2023-04-25T04:57:31;99615.28;;;9.83;73.75
41712;BME280;27399;51.516;13.670;2023-04-25T04:59:58;99623.31;;;9.80;74.18
41712;BME280;27399;51.516;13.670;2023-04-25T05:02:25;99617.28;;;9.70;73.69
41712;BME280;27399;51.516;13.670;2023-04-25T05:04:51;99623.38;;;9.78;73.27
41712;BME280;27399;51.516;13.670;2023-04-25T05:07:17;99617.94;;;9.83;73.71
41712;BME280;27399;51.516;13.670;2023-04-25T05:09:43;99622.25;;;9.90;73.29
41712;BME280;27399;51.516;13.670;2023-04-25T05:12:09;99627.22;;;10.10;73.34
41712;BME280;27399;51.516;13.670;2023-04-25T05:14:35;99627.22;;;10.08;73.13
41712;BME280;27399;51.516;13.670;2023-04-25T05:17:01;99633.44;;;10.09;73.24
41712;BME280;27399;51.516;13.670;2023-04-25T05:19:26;99627.84;;;10.23;72.35
41712;BME280;27399;51.516;13.670;2023-04-25T05:21:52;99623.59;;;10.13;72.00
41712;BME280;27399;51.516;13.670;2023-04-25T05:24:18;99632.50;;;10.12;71.48
41712;BME280;27399;51.516;13.670;2023-04-25T05:26:43;99634.03;;;10.25;72.33
41712;BME280;27399;51.516;13.670;2023-04-25T05:29:09;99631.56;;;10.14;71.63
41712;BME280;27399;51.516;13.670;2023-04-25T05:31:36;99620.94;;;10.13;71.58
41712;BME280;27399;51.516;13.670;2023-04-25T05:34:02;99631.16;;;10.34;71.54
41712;BME280;27399;51.516;13.670;2023-04-25T05:36:27;99633.88;;;10.31;71.20
41712;BME280;27399;51.516;13.670;2023-04-25T05:38:53;99638.78;;;10.09;72.00
41712;BME280;27399;51.516;13.670;2023-04-25T05:41:19;99632.88;;;10.38;71.32
41712;BME280;27399;51.516;13.670;2023-04-25T05:43:45;99640.69;;;10.48;71.68
41712;BME280;27399;51.516;13.670;2023-04-25T05:46:13;99644.09;;;10.54;71.42
41712;BME280;27399;51.516;13.670;2023-04-25T05:48:39;99634.34;;;10.55;72.02
41712;BME280;27399;51.516;13.670;2023-04-25T05:51:05;99641.16;;;10.68;71.25
41712;BME280;27399;51.516;13.670;2023-04-25T05:53:30;99643.00;;;10.66;70.54
41712;BME280;27399;51.516;13.670;2023-04-25T05:55:56;99644.16;;;10.53;70.86
41712;BME280;27399;51.516;13.670;2023-04-25T05:58:22;99641.78;;;10.80;70.78
41712;BME280;27399;51.516;13.670;2023-04-25T06:00:50;99636.69;;;10.69;71.44
41712;BME280;27399;51.516;13.670;2023-04-25T06:03:17;99648.88;;;10.82;70.34
41712;BME280;27399;51.516;13.670;2023-04-25T06:05:43;99647.97;;;10.82;69.60
41712;BME280;27399;51.516;13.670;2023-04-25T06:08:09;99643.16;;;10.99;70.22
41712;BME280;27399;51.516;13.670;2023-04-25T06:10:36;99642.09;;;11.07;69.36
41712;BME280;27399;51.516;13.670;2023-04-25T06:13:02;99641.13;;;11.09;68.99
41712;BME280;27399;51.516;13.670;2023-04-25T06:15:27;99637.31;;;11.21;69.36
41712;BME280;27399;51.516;13.670;2023-04-25T06:17:53;99640.13;;;11.15;68.53
41712;BME280;27399;51.516;13.670;2023-04-25T06:20:19;99638.13;;;11.25;69.42
41712;BME280;27399;51.516;13.670;2023-04-25T06:22:49;99637.41;;;11.16;68.16
41712;BME280;27399;51.516;13.670;2023-04-25T06:25:15;99637.91;;;11.32;67.82
41712;BME280;27399;51.516;13.670;2023-04-25T06:27:41;99635.69;;;11.15;68.78
41712;BME280;27399;51.516;13.670;2023-04-25T06:30:07;99632.56;;;11.32;69.25
41712;BME280;27399;51.516;13.670;2023-04-25T06:32:33;99636.13;;;11.33;67.83
41712;BME280;27399;51.516;13.670;2023-04-25T06:35:00;99632.28;;;11.45;68.17
41712;BME280;27399;51.516;13.670;2023-04-25T06:37:26;99634.66;;;11.57;68.71
41712;BME280;27399;51.516;13.670;2023-04-25T06:39:51;99635.50;;;11.59;68.00
41712;BME280;27399;51.516;13.670;2023-04-25T06:42:17;99636.72;;;11.81;68.18
41712;BME280;27399;51.516;13.670;2023-04-25T06:44:43;99634.53;;;11.63;66.78
41712;BME280;27399;51.516;13.670;2023-04-25T06:47:08;99645.16;;;11.65;67.11
41712;BME280;27399;51.516;13.670;2023-04-25T06:49:34;99649.09;;;11.85;67.88
41712;BME280;27399;51.516;13.670;2023-04-25T06:51:59;99644.97;;;11.71;66.91
41712;BME280;27399;51.516;13.670;2023-04-25T06:54:25;99654.31;;;11.89;67.59
41712;BME280;27399;51.516;13.670;2023-04-25T06:56:53;99653.97;;;12.03;68.23
41712;BME280;27399;51.516;13.670;2023-04-25T06:59:18;99660.38;;;11.96;67.02
41712;BME280;27399;51.516;13.670;2023-04-25T07:01:44;99656.91;;;11.92;66.68
41712;BME280;27399;51.516;13.670;2023-04-25T07:04:10;99650.44;;;12.03;65.62
41712;BME280;27399;51.516;13.670;2023-04-25T07:06:36;99657.44;;;12.07;67.13
41712;BME280;27399;51.516;13.670;2023-04-25T07:09:08;99652.53;;;12.24;67.03
41712;BME280;27399;51.516;13.670;2023-04-25T07:11:34;99658.72;;;12.27;66.56
41712;BME280;27399;51.516;13.670;2023-04-25T07:13:59;99665.91;;;12.24;65.80
41712;BME280;27399;51.516;13.670;2023-04-25T07:16:25;99664.50;;;12.43;66.12
41712;BME280;27399;51.516;13.670;2023-04-25T07:18:50;99661.16;;;12.34;66.22
41712;BME280;27399;51.516;13.670;2023-04-25T07:21:16;99658.47;;;12.36;66.10
41712;BME280;27399;51.516;13.670;2023-04-25T07:23:42;99659.44;;;12.32;65.36
41712;BME280;27399;51.516;13.670;2023-04-25T07:26:07;99661.72;;;12.14;66.62
41712;BME280;27399;51.516;13.670;2023-04-25T07:28:33;99658.13;;;12.48;66.10
41712;BME280;27399;51.516;13.670;2023-04-25T07:30:59;99655.03;;;12.31;65.92
41712;BME280;27399;51.516;13.670;2023-04-25T07:33:26;99665.13;;;12.52;65.64
41712;BME280;27399;51.516;13.670;2023-04-25T07:35:52;99670.91;;;12.68;66.78
41712;BME280;27399;51.516;13.670;2023-04-25T07:38:18;99672.50;;;12.74;64.94
41712;BME280;27399;51.516;13.670;2023-04-25T07:40:44;99665.00;;;12.87;66.07
41712;BME280;27399;51.516;13.670;2023-04-25T07:43:09;99667.91;;;12.79;64.99
41712;BME280;27399;51.516;13.670;2023-04-25T07:45:49;99680.03;;;12.91;65.69
41712;BME280;27399;51.516;13.670;2023-04-25T07:48:18;99669.97;;;12.99;64.71
41712;BME280;27399;51.516;13.670;2023-04-25T07:50:44;99664.31;;;12.80;64.71
41712;BME280;27399;51.516;13.670;2023-04-25T07:53:10;99681.94;;;12.88;66.11
41712;BME280;27399;51.516;13.670;2023-04-25T07:55:36;99680.97;;;12.90;66.33
41712;BME280;27399;51.516;13.670;2023-04-25T07:58:05;99675.38;;;12.98;64.57
41712;BME280;27399;51.516;13.670;2023-04-25T08:00:31;99680.19;;;12.86;63.88
41712;BME280;27399;51.516;13.670;2023-04-25T08:02:56;99683.13;;;12.77;63.72
41712;BME280;27399;51.516;13.670;2023-04-25T08:05:22;99679.69;;;12.74;65.23
41712;BME280;27399;51.516;13.670;2023-04-25T08:07:48;99691.47;;;12.96;64.44
41712;BME280;27399;51.516;13.670;2023-04-25T08:10:13;99683.06;;;12.80;64.76
41712;BME280;27399;51.516;13.670;2023-04-25T08:12:39;99686.88;;;13.01;65.08
41712;BME280;27399;51.516;13.670;2023-04-25T08:15:05;99689.03;;;12.89;65.30
41712;BME280;27399;51.516;13.670;2023-04-25T08:17:31;99688.28;;;13.13;64.62
41712;BME280;27399;51.516;13.670;2023-04-25T08:19:57;99695.41;;;13.14;65.60
41712;BME280;27399;51.516;13.670;2023-04-25T08:22:22;99694.75;;;13.06;64.42
41712;BME280;27399;51.516;13.670;2023-04-25T08:24:48;99701.78;;;12.80;64.82
41712;BME280;27399;51.516;13.670;2023-04-25T08:27:14;99701.66;;;12.83;64.62
41712;BME280;27399;51.516;13.670;2023-04-25T08:29:41;99699.56;;;12.95;65.02
41712;BME280;27399;51.516;13.670;2023-04-25T08:32:07;99705.09;;;12.89;65.43
41712;BME280;27399;51.516;13.670;2023-04-25T08:34:32;99705.47;;;12.76;64.82
41712;BME280;27399;51.516;13.670;2023-04-25T08:36:58;99707.50;;;12.98;64.04
41712;BME280;27399;51.516;13.670;2023-04-25T08:39:24;99710.44;;;12.57;64.28
41712;BME280;27399;51.516;13.670;2023-04-25T08:41:50;99714.31;;;12.78;64.35
41712;BME280;27399;51.516;13.670;2023-04-25T08:44:16;99718.91;;;12.73;65.00
41712;BME280;27399;51.516;13.670;2023-04-25T08:46:42;99728.00;;;12.67;64.68
41712;BME280;27399;51.516;13.670;2023-04-25T08:49:11;99724.91;;;12.81;65.63
41712;BME280;27399;51.516;13.670;2023-04-25T08:51:44;99734.97;;;12.73;66.03
41712;BME280;27399;51.516;13.670;2023-04-25T08:54:13;99727.97;;;12.69;65.90
41712;BME280;27399;51.516;13.670;2023-04-25T08:56:41;99734.03;;;12.74;64.96
41712;BME280;27399;51.516;13.670;2023-04-25T08:59:07;99725.09;;;12.75;65.91
41712;BME280;27399;51.516;13.670;2023-04-25T09:01:36;99719.84;;;12.72;66.05
41712;BME280;27399;51.516;13.670;2023-04-25T09:04:02;99733.63;;;12.90;66.70
41712;BME280;27399;51.516;13.670;2023-04-25T09:06:30;99733.75;;;12.85;67.03
41712;BME280;27399;51.516;13.670;2023-04-25T09:09:08;99721.50;;;12.76;66.21
41712;BME280;27399;51.516;13.670;2023-04-25T09:11:36;99736.94;;;12.98;66.66
41712;BME280;27399;51.516;13.670;2023-04-25T09:14:12;99710.88;;;12.73;66.18
41712;BME280;27399;51.516;13.670;2023-04-25T09:19:22;99753.53;;;12.79;66.46
41712;BME280;27399;51.516;13.670;2023-04-25T09:21:56;99755.09;;;12.86;65.86
41712;BME280;27399;51.516;13.670;2023-04-25T09:24:43;99759.69;;;12.83;66.61
41712;BME280;27399;51.516;13.670;2023-04-25T09:27:11;99764.59;;;12.67;66.96
41712;BME280;27399;51.516;13.670;2023-04-25T09:29:38;99761.50;;;12.81;66.58
41712;BME280;27399;51.516;13.670;2023-04-25T09:34:40;99770.31;;;12.84;67.13
41712;BME280;27399;51.516;13.670;2023-04-25T09:37:11;99760.72;;;12.77;66.41
41712;BME280;27399;51.516;13.670;2023-04-25T09:39:38;99770.28;;;13.17;66.24
41712;BME280;27399;51.516;13.670;2023-04-25T09:42:04;99762.66;;;13.04;65.98
41712;BME280;27399;51.516;13.670;2023-04-25T09:44:30;99769.84;;;13.01;66.00
41712;BME280;27399;51.516;13.670;2023-04-25T09:46:56;99770.19;;;13.21;65.32
41712;BME280;27399;51.516;13.670;2023-04-25T09:49:22;99761.78;;;13.33;65.35
41712;BME280;27399;51.516;13.670;2023-04-25T09:51:56;99775.28;;;13.28;65.58
41712;BME280;27399;51.516;13.670;2023-04-25T09:54:26;99773.59;;;13.26;66.39
41712;BME280;27399;51.516;13.670;2023-04-25T09:56:53;99773.88;;;13.16;65.50
41712;BME280;27399;51.516;13.670;2023-04-25T09:59:20;99776.63;;;13.13;66.09
41712;BME280;27399;51.516;13.670;2023-04-25T10:01:48;99782.19;;;13.07;66.90
41712;BME280;27399;51.516;13.670;2023-04-25T10:04:19;99782.38;;;13.01;67.33
41712;BME280;27399;51.516;13.670;2023-04-25T10:06:48;99780.28;;;12.79;67.17
41712;BME280;27399;51.516;13.670;2023-04-25T10:09:14;99788.41;;;12.76;66.93
41712;BME280;27399;51.516;13.670;2023-04-25T10:11:41;99790.41;;;12.68;67.18
41712;BME280;27399;51.516;13.670;2023-04-25T10:14:07;99785.88;;;12.70;68.00
41712;BME280;27399;51.516;13.670;2023-04-25T10:16:33;99791.66;;;12.88;67.84
41712;BME280;27399;51.516;13.670;2023-04-25T10:18:59;99797.09;;;12.84;68.02
41712;BME280;27399;51.516;13.670;2023-04-25T10:21:27;99797.59;;;12.66;68.47
41712;BME280;27399;51.516;13.670;2023-04-25T10:23:53;99801.84;;;12.73;68.52
41712;BME280;27399;51.516;13.670;2023-04-25T10:26:20;99806.13;;;12.47;69.50
41712;BME280;27399;51.516;13.670;2023-04-25T10:29:01;99808.56;;;12.55;68.37
41712;BME280;27399;51.516;13.670;2023-04-25T10:31:30;99802.75;;;12.39;68.83
41712;BME280;27399;51.516;13.670;2023-04-25T10:33:56;99811.34;;;12.52;68.06
41712;BME280;27399;51.516;13.670;2023-04-25T10:36:23;99821.47;;;12.03;68.44
41712;BME280;27399;51.516;13.670;2023-04-25T10:38:51;99811.78;;;12.35;69.42
41712;BME280;27399;51.516;13.670;2023-04-25T10:41:21;99820.03;;;12.26;68.89
41712;BME280;27399;51.516;13.670;2023-04-25T10:43:48;99815.97;;;12.09;68.19
41712;BME280;27399;51.516;13.670;2023-04-25T10:46:19;99820.94;;;12.24;68.85
41712;BME280;27399;51.516;13.670;2023-04-25T10:48:55;99821.13;;;12.53;68.19
41712;BME280;27399;51.516;13.670;2023-04-25T10:51:22;99825.03;;;12.39;68.60
41712;BME280;27399;51.516;13.670;2023-04-25T10:58:47;99828.00;;;12.63;67.95
41712;BME280;27399;51.516;13.670;2023-04-25T11:01:15;99825.81;;;12.43;68.96
41712;BME280;27399;51.516;13.670;2023-04-25T11:03:42;99828.63;;;12.38;67.09
41712;BME280;27399;51.516;13.670;2023-04-25T11:06:22;99829.03;;;12.58;67.01
41712;BME280;27399;51.516;13.670;2023-04-25T11:08:50;99833.84;;;12.43;67.80
41712;BME280;27399;51.516;13.670;2023-04-25T11:11:17;99834.63;;;12.48;68.68
41712;BME280;27399;51.516;13.670;2023-04-25T11:13:43;99837.78;;;12.64;67.67
41712;BME280;27399;51.516;13.670;2023-04-25T11:16:09;99834.97;;;12.69;67.90
41712;BME280;27399;51.516;13.670;2023-04-25T11:18:35;99832.94;;;12.44;67.20
41712;BME280;27399;51.516;13.670;2023-04-25T11:21:02;99837.66;;;12.69;66.34
41712;BME280;27399;51.516;13.670;2023-04-25T11:23:29;99843.88;;;12.69;66.12
41712;BME280;27399;51.516;13.670;2023-04-25T11:25:55;99842.06;;;12.35;64.36
41712;BME280;27399;51.516;13.670;2023-04-25T11:28:22;99840.81;;;12.83;63.95
41712;BME280;27399;51.516;13.670;2023-04-25T11:30:49;99846.16;;;12.85;63.04
41712;BME280;27399;51.516;13.670;2023-04-25T11:33:18;99845.88;;;12.61;61.37
41712;BME280;27399;51.516;13.670;2023-04-25T11:35:43;99847.97;;;12.83;63.30
41712;BME280;27399;51.516;13.670;2023-04-25T11:38:09;99848.50;;;12.63;61.55
41712;BME280;27399;51.516;13.670;2023-04-25T11:40:35;99857.84;;;13.12;61.95
41712;BME280;27399;51.516;13.670;2023-04-25T11:43:01;99847.91;;;13.17;62.25
41712;BME280;27399;51.516;13.670;2023-04-25T11:45:28;99843.53;;;12.82;60.25
41712;BME280;27399;51.516;13.670;2023-04-25T11:47:55;99857.00;;;13.12;60.85
41712;BME280;27399;51.516;13.670;2023-04-25T11:50:20;99854.44;;;13.07;60.12
41712;BME280;27399;51.516;13.670;2023-04-25T11:52:47;99857.34;;;12.99;60.03
41712;BME280;27399;51.516;13.670;2023-04-25T11:55:15;99850.66;;;13.14;60.19
41712;BME280;27399;51.516;13.670;2023-04-25T11:57:43;99853.28;;;13.17;59.62
41712;BME280;27399;51.516;13.670;2023-04-25T12:00:14;99837.16;;;13.19;59.09
41712;BME280;27399;51.516;13.670;2023-04-25T12:02:43;99850.53;;;13.19;59.00
41712;BME280;27399;51.516;13.670;2023-04-25T12:05:13;99864.28;;;13.07;59.14
41712;BME280;27399;51.516;13.670;2023-04-25T12:07:39;99859.72;;;13.10;58.66
41712;BME280;27399;51.516;13.670;2023-04-25T12:10:11;99873.91;;;13.12;59.05
41712;BME280;27399;51.516;13.670;2023-04-25T12:12:38;99876.13;;;12.98;58.47
41712;BME280;27399;51.516;13.670;2023-04-25T12:17:37;99880.09;;;13.16;59.62
41712;BME280;27399;51.516;13.670;2023-04-25T12:20:20;99875.47;;;12.88;58.00
41712;BME280;27399;51.516;13.670;2023-04-25T12:22:49;99882.03;;;12.76;58.37
41712;BME280;27399;51.516;13.670;2023-04-25T12:25:44;99876.97;;;13.00;57.68
41712;BME280;27399;51.516;13.670;2023-04-25T12:28:16;99878.84;;;12.62;59.39
41712;BME280;27399;51.516;13.670;2023-04-25T12:33:23;99867.09;;;12.67;60.23
41712;BME280;27399;51.516;13.670;2023-04-25T12:35:49;99877.28;;;12.88;59.59
41712;BME280;27399;51.516;13.670;2023-04-25T12:38:25;99878.78;;;12.65;59.63
41712;BME280;27399;51.516;13.670;2023-04-25T12:40:52;99880.94;;;12.85;60.26
41712;BME280;27399;51.516;13.670;2023-04-25T12:43:17;99881.16;;;12.76;59.31
41712;BME280;27399;51.516;13.670;2023-04-25T12:45:44;99890.75;;;12.84;60.34
41712;BME280;27399;51.516;13.670;2023-04-25T12:48:10;99891.72;;;12.82;60.28
41712;BME280;27399;51.516;13.670;2023-04-25T12:50:36;99889.72;;;12.55;58.19
41712;BME280;27399;51.516;13.670;2023-04-25T12:53:02;99885.44;;;12.83;59.02
41712;BME280;27399;51.516;13.670;2023-04-25T12:55:27;99893.75;;;13.05;59.23
41712;BME280;27399;51.516;13.670;2023-04-25T12:57:53;99883.59;;;13.18;60.90
41712;BME280;27399;51.516;13.670;2023-04-25T13:00:19;99885.22;;;13.24;59.16
41712;BME280;27399;51.516;13.670;2023-04-25T13:02:45;99883.13;;;13.02;55.96